Swartz Creek, Michigan
Current Conditions -  °F | °C
As of 2:53 PM on Monday 26 Jan 2015 (Local Time) from KFNT Reporting Station
Clear Clear  
Wind Chill: 20°   Ceiling: Unl
Heat Index: 27°   Visibility: 10mi
Dew Point:   Wind: 6mph
Humidity: 43%   Direction: 20°NNE
Pressure: 29.91"   Gusts: NA
Location:  42.96°N, 83.83°W
Report Text: KFNT 261953Z 02005KT 10SM CLR M03/M14 A2991 RMK AO2 SLP140 T10281139
Loading
Personal Weather Stations






























Interactive Weather Map New forecast layout! Learn more

10-Day Weather Forecast

Advertisements
Track Severe Weather on mobile